createdAt,value
2019-02-05T00:01:54.074Z,21.33
2019-02-05T00:04:23.405Z,19.27
2019-02-05T00:06:52.897Z,20.48
2019-02-05T00:09:22.310Z,19.50
2019-02-05T00:11:51.673Z,18.90
2019-02-05T00:14:21.445Z,21.05
2019-02-05T00:16:50.865Z,22.05
2019-02-05T00:19:20.214Z,22.40
2019-02-05T00:21:49.571Z,22.05
2019-02-05T00:24:18.959Z,20.90
2019-02-05T00:26:48.278Z,20.57
2019-02-05T00:29:18.070Z,22.05
2019-02-05T00:31:47.459Z,20.65
2019-02-05T00:34:16.790Z,21.80
2019-02-05T00:36:46.155Z,21.57
2019-02-05T00:39:15.469Z,20.35
2019-02-05T00:41:45.121Z,21.87
2019-02-05T00:44:14.705Z,21.50
2019-02-05T00:46:43.993Z,20.45
2019-02-05T00:49:13.312Z,20.70
2019-02-05T00:51:42.704Z,20.40
2019-02-05T00:54:12.181Z,20.85
2019-02-05T00:56:41.509Z,21.40
2019-02-05T00:59:11.126Z,21.02
2019-02-05T01:01:40.591Z,19.57
2019-02-05T01:04:10.006Z,20.40
2019-02-05T01:06:39.339Z,22.00
2019-02-05T01:09:10.476Z,21.82
2019-02-05T01:11:39.799Z,20.32
2019-02-05T01:14:09.150Z,20.88
2019-02-05T01:16:38.454Z,20.30
2019-02-05T01:19:07.807Z,19.48
2019-02-05T01:21:37.403Z,20.02
2019-02-05T01:24:06.856Z,20.82
2019-02-05T01:26:36.176Z,20.85
2019-02-05T01:29:05.537Z,21.37
2019-02-05T01:31:34.859Z,20.85
2019-02-05T01:34:04.698Z,20.75
2019-02-05T01:36:34.023Z,20.60
2019-02-05T01:39:04.683Z,20.02
2019-02-05T01:41:34.428Z,20.60
2019-02-05T01:44:06.011Z,18.55
2019-02-05T01:46:35.538Z,20.95
2019-02-05T01:49:04.895Z,20.50
2019-02-05T01:51:34.225Z,19.95
2019-02-05T01:54:03.693Z,21.02
2019-02-05T01:56:40.468Z,21.87
2019-02-05T01:59:04.630Z,21.97
2019-02-05T02:01:34.310Z,21.85
2019-02-05T02:04:03.649Z,21.62
2019-02-05T02:06:33.301Z,22.52
2019-02-05T02:09:04.001Z,21.33
2019-02-05T02:11:33.571Z,22.20
2019-02-05T02:14:02.884Z,23.85
2019-02-05T02:16:32.203Z,24.12
2019-02-05T02:19:01.613Z,23.52
2019-02-05T02:21:30.936Z,24.27
2019-02-05T02:24:00.244Z,23.77
2019-02-05T02:26:29.563Z,25.10
2019-02-05T02:28:59.206Z,25.30
2019-02-05T02:31:28.579Z,23.05
2019-02-05T02:33:57.924Z,25.27
2019-02-05T02:36:27.300Z,24.92
2019-02-05T02:38:56.617Z,25.52
2019-02-05T02:41:26.142Z,26.40
2019-02-05T02:43:55.469Z,24.47
2019-02-05T02:46:24.893Z,26.17
2019-02-05T02:48:54.220Z,26.87
2019-02-05T02:51:23.551Z,25.85
2019-02-05T02:53:52.884Z,28.00
2019-02-05T02:56:22.614Z,27.87
2019-02-05T02:58:51.984Z,27.25
2019-02-05T03:01:21.314Z,26.97
2019-02-05T03:03:50.606Z,27.40
2019-02-05T03:06:20.000Z,28.80
2019-02-05T03:08:49.465Z,28.40
2019-02-05T03:11:19.106Z,28.27
2019-02-05T03:13:48.401Z,26.52
2019-02-05T03:16:17.677Z,28.47
2019-02-05T03:18:47.096Z,28.02
2019-02-05T03:21:16.576Z,30.40
2019-02-05T03:23:45.935Z,26.82
2019-02-05T03:26:15.290Z,26.12
2019-02-05T03:28:45.361Z,26.62
2019-02-05T03:31:14.666Z,28.30
2019-02-05T03:33:44.002Z,24.12
2019-02-05T03:36:13.350Z,26.85
2019-02-05T03:38:42.761Z,26.75
2019-02-05T03:41:12.300Z,26.07
2019-02-05T03:43:42.681Z,26.68
2019-02-05T03:46:31.929Z,29.18
2019-02-05T03:49:01.624Z,29.37
2019-02-05T03:52:02.164Z,30.52
2019-02-05T03:55:24.479Z,29.82
2019-02-05T03:58:29.767Z,29.85
2019-02-05T04:02:04.580Z,27.00
2019-02-05T04:05:18.564Z,28.90
2019-02-05T04:08:39.770Z,27.98
2019-02-05T04:11:42.193Z,26.93
2019-02-05T04:14:53.293Z,25.92
2019-02-05T04:18:15.277Z,25.68
2019-02-05T04:21:34.931Z,26.05
2019-02-05T04:24:41.548Z,24.92
2019-02-05T04:28:01.503Z,23.45
2019-02-05T04:31:04.087Z,23.30
2019-02-05T04:34:09.976Z,22.67
2019-02-05T04:37:01.187Z,25.10
2019-02-05T04:40:11.109Z,26.02
2019-02-05T04:43:03.664Z,24.80
2019-02-05T04:46:08.107Z,24.77
2019-02-05T04:49:19.293Z,23.32
2019-02-05T04:52:16.115Z,23.42
2019-02-05T04:55:29.279Z,22.73
2019-02-05T04:58:28.422Z,23.92
2019-02-05T05:01:48.084Z,25.80
2019-02-05T05:04:49.268Z,25.12
2019-02-05T05:07:35.538Z,23.73
2019-02-05T05:10:07.335Z,24.55
2019-02-05T05:12:36.989Z,26.35
2019-02-05T05:15:08.881Z,26.50
2019-02-05T05:17:38.398Z,25.40
2019-02-05T05:20:10.383Z,23.67
2019-02-05T05:22:40.390Z,22.22
2019-02-05T05:25:11.508Z,22.95
2019-02-05T05:28:39.335Z,21.95
2019-02-05T05:31:08.848Z,22.05
2019-02-05T05:33:38.432Z,22.58
2019-02-05T05:36:07.977Z,23.10
2019-02-05T05:38:37.472Z,23.47
2019-02-05T05:41:07.347Z,21.05
2019-02-05T05:43:37.371Z,21.15
2019-02-05T05:46:07.035Z,20.65
2019-02-05T05:48:36.696Z,19.75
2019-02-05T05:51:06.334Z,19.30
2019-02-05T05:53:35.875Z,21.10
2019-02-05T05:56:05.395Z,20.70
2019-02-05T05:58:35.249Z,21.95
2019-02-05T06:01:04.923Z,20.90
2019-02-05T06:03:34.404Z,21.60
2019-02-05T06:06:04.027Z,22.40
2019-02-05T06:08:34.555Z,22.02
2019-02-05T06:11:04.045Z,21.85
2019-02-05T06:13:33.618Z,22.95
2019-02-05T06:16:03.174Z,24.82
2019-02-05T06:18:32.761Z,25.65
2019-02-05T06:21:02.340Z,23.45
2019-02-05T06:23:31.973Z,23.32
2019-02-05T06:26:01.544Z,22.02
2019-02-05T06:28:34.607Z,22.37
2019-02-05T06:31:02.883Z,20.72
2019-02-05T06:33:32.394Z,21.40
2019-02-05T06:36:01.909Z,21.82
2019-02-05T06:38:31.443Z,24.43
2019-02-05T06:41:01.005Z,26.75
2019-02-05T06:43:30.648Z,24.92
2019-02-05T06:46:00.897Z,35.75
2019-02-05T06:48:30.468Z,32.85
2019-02-05T06:51:00.152Z,24.65
2019-02-05T06:53:29.650Z,20.05
2019-02-05T06:55:59.128Z,21.57
2019-02-05T06:58:28.825Z,25.57
2019-02-05T07:00:58.943Z,23.47
2019-02-05T07:03:28.502Z,19.60
2019-02-05T07:05:57.956Z,19.55
2019-02-05T07:08:27.582Z,21.48
2019-02-05T07:10:57.163Z,25.02
2019-02-05T07:13:26.783Z,31.97
2019-02-05T07:15:56.441Z,41.42
2019-02-05T07:18:25.971Z,33.33
2019-02-05T07:20:55.834Z,39.45
2019-02-05T07:23:25.355Z,35.78
2019-02-05T07:25:55.079Z,26.70
2019-02-05T07:28:24.634Z,23.57
2019-02-05T07:30:54.094Z,27.67
2019-02-05T07:33:23.655Z,26.50
2019-02-05T07:35:53.146Z,24.50
2019-02-05T07:38:22.694Z,25.25
2019-02-05T07:40:52.376Z,23.45
2019-02-05T07:43:21.934Z,30.00
2019-02-05T07:45:51.804Z,32.48
2019-02-05T07:48:21.299Z,28.50
2019-02-05T07:50:50.957Z,22.82
2019-02-05T07:53:20.424Z,25.05
2019-02-05T07:55:49.858Z,25.00
2019-02-05T07:58:19.393Z,26.07
2019-02-05T08:00:49.055Z,21.95
2019-02-05T08:03:18.590Z,21.82
2019-02-05T08:06:06.044Z,19.15
2019-02-05T08:08:35.573Z,20.55
2019-02-05T08:11:06.415Z,19.92
2019-02-05T08:13:35.963Z,17.98
2019-02-05T08:16:05.991Z,20.20
2019-02-05T08:18:35.569Z,18.65
2019-02-05T08:21:05.931Z,18.40
2019-02-05T08:23:35.551Z,19.90
2019-02-05T08:26:05.163Z,20.72
2019-02-05T08:28:40.877Z,19.75
2019-02-05T08:31:06.250Z,18.73
2019-02-05T08:33:35.827Z,21.02
2019-02-05T08:36:05.996Z,17.95
2019-02-05T08:38:35.639Z,19.67
2019-02-05T08:41:05.233Z,19.35
2019-02-05T08:43:34.811Z,20.00
2019-02-05T08:46:04.462Z,19.42
2019-02-05T08:48:33.940Z,18.62
2019-02-05T08:51:03.463Z,16.90
2019-02-05T08:53:33.349Z,16.52
2019-02-05T08:56:03.361Z,15.43
2019-02-05T08:58:33.258Z,14.95
2019-02-05T09:01:02.757Z,14.03
2019-02-05T09:03:32.236Z,15.43
2019-02-05T09:06:01.889Z,17.77
2019-02-05T09:08:31.462Z,18.05
2019-02-05T09:11:01.009Z,17.15
2019-02-05T09:13:30.555Z,16.27
2019-02-05T09:15:59.975Z,16.75
2019-02-05T09:18:29.511Z,15.03
2019-02-05T09:20:59.111Z,15.65
2019-02-05T09:23:28.647Z,14.53
2019-02-05T09:26:00.535Z,15.80
2019-02-05T09:28:30.082Z,16.17
2019-02-05T09:30:59.608Z,14.83
2019-02-05T09:33:29.362Z,17.13
2019-02-05T09:35:58.911Z,16.90
2019-02-05T09:38:28.416Z,16.27
2019-02-05T09:40:58.263Z,16.40
2019-02-05T09:43:27.752Z,15.60
2019-02-05T09:45:57.264Z,15.50
2019-02-05T09:48:26.804Z,16.43
2019-02-05T09:50:56.563Z,17.03
2019-02-05T09:53:26.042Z,16.40
2019-02-05T09:55:55.593Z,17.77
2019-02-05T09:58:25.271Z,16.73
2019-02-05T10:00:54.991Z,16.80
2019-02-05T10:03:24.715Z,16.37
2019-02-05T10:05:54.242Z,16.33
2019-02-05T10:08:23.752Z,15.53
2019-02-05T10:10:53.333Z,16.33
2019-02-05T10:13:23.700Z,16.40
2019-02-05T10:15:53.338Z,16.97
2019-02-05T10:18:22.971Z,16.40
2019-02-05T10:20:54.054Z,16.80
2019-02-05T10:23:23.703Z,17.20
2019-02-05T10:25:53.600Z,16.57
2019-02-05T10:28:23.030Z,16.30
2019-02-05T10:30:52.542Z,16.90
2019-02-05T10:33:22.494Z,15.33
2019-02-05T10:35:52.152Z,17.27
2019-02-05T10:38:21.728Z,16.43
2019-02-05T10:40:51.173Z,16.80
2019-02-05T10:43:21.961Z,17.27
2019-02-05T10:45:51.497Z,16.63
2019-02-05T10:48:21.012Z,17.30
2019-02-05T10:50:50.684Z,16.20
2019-02-05T10:53:20.226Z,17.50
2019-02-05T10:55:50.184Z,16.97
2019-02-05T10:58:19.899Z,16.47
2019-02-05T11:00:49.954Z,16.37
2019-02-05T11:03:20.521Z,15.97
2019-02-05T11:05:50.164Z,17.77
2019-02-05T11:08:19.974Z,17.37
2019-02-05T11:10:49.579Z,16.40
2019-02-05T11:13:19.458Z,17.30
2019-02-05T11:15:49.892Z,18.43
2019-02-05T11:18:19.718Z,19.10
2019-02-05T11:20:49.452Z,17.83
2019-02-05T11:23:19.297Z,19.57
2019-02-05T11:25:48.896Z,18.80
2019-02-05T11:28:18.651Z,19.07
2019-02-05T11:30:48.324Z,18.80
2019-02-05T11:33:18.332Z,18.75
2019-02-05T11:35:47.973Z,18.25
2019-02-05T11:38:17.711Z,18.48
2019-02-05T11:40:48.028Z,18.32
2019-02-05T11:43:17.647Z,16.67
2019-02-05T11:45:47.344Z,18.00
2019-02-05T11:48:18.691Z,18.10
2019-02-05T11:50:48.320Z,18.17
2019-02-05T11:53:17.860Z,16.50
2019-02-05T11:55:47.442Z,17.40
2019-02-05T11:58:17.297Z,17.12
2019-02-05T12:01:05.858Z,16.90
2019-02-05T12:03:35.426Z,19.60
2019-02-05T12:06:05.104Z,18.98
2019-02-05T12:08:34.642Z,16.67
2019-02-05T12:11:04.316Z,16.30
2019-02-05T12:13:34.067Z,16.48
2019-02-05T12:16:04.042Z,16.02
2019-02-05T12:18:33.647Z,17.10
2019-02-05T12:21:03.374Z,16.90
2019-02-05T12:23:32.939Z,20.10
2019-02-05T12:26:02.571Z,16.75
2019-02-05T12:28:32.289Z,17.48
2019-02-05T12:31:01.856Z,17.23
2019-02-05T12:33:31.760Z,17.65
2019-02-05T12:36:02.416Z,16.95
2019-02-05T12:38:32.041Z,15.63
2019-02-05T12:41:01.612Z,17.27
2019-02-05T12:43:31.216Z,16.97
2019-02-05T12:46:03.094Z,15.98
2019-02-05T12:48:32.560Z,16.07
2019-02-05T12:51:02.301Z,17.12
2019-02-05T12:53:31.851Z,17.17
2019-02-05T12:56:01.482Z,16.62
2019-02-05T12:58:31.005Z,16.48
2019-02-05T13:01:01.324Z,17.05
2019-02-05T13:03:31.182Z,19.62
2019-02-05T13:06:00.743Z,16.60
2019-02-05T13:08:30.294Z,16.70
2019-02-05T13:10:59.831Z,18.77
2019-02-05T13:13:29.403Z,16.77
2019-02-05T13:15:59.023Z,16.37
2019-02-05T13:18:28.539Z,17.45
2019-02-05T13:20:58.095Z,17.30
2019-02-05T13:23:29.912Z,16.20
2019-02-05T13:25:59.501Z,16.12
2019-02-05T13:28:29.279Z,15.83
2019-02-05T13:31:07.704Z,15.13
2019-02-05T13:33:30.839Z,16.20
2019-02-05T13:36:00.428Z,15.98
2019-02-05T13:38:30.031Z,14.00
2019-02-05T13:40:59.564Z,14.80
2019-02-05T13:43:29.479Z,15.23
2019-02-05T13:45:59.224Z,15.00
2019-02-05T13:48:28.795Z,14.63
2019-02-05T13:50:58.302Z,15.20
2019-02-05T13:53:27.904Z,14.65
2019-02-05T13:55:57.493Z,15.20
2019-02-05T13:58:27.051Z,14.78
2019-02-05T14:00:56.883Z,14.80
2019-02-05T14:03:26.648Z,13.83
2019-02-05T14:05:56.292Z,15.25
2019-02-05T14:08:25.826Z,13.95
2019-02-05T14:10:55.750Z,14.95
2019-02-05T14:13:25.296Z,14.00
2019-02-05T14:15:55.892Z,14.10
2019-02-05T14:18:25.505Z,13.30
2019-02-05T14:20:55.057Z,13.95
2019-02-05T14:23:24.574Z,13.00
2019-02-05T14:25:54.183Z,13.03
2019-02-05T14:28:23.791Z,13.85
2019-02-05T14:30:57.340Z,13.15
2019-02-05T14:33:28.894Z,14.40
2019-02-05T14:35:58.564Z,16.07
2019-02-05T14:38:28.141Z,15.53
2019-02-05T14:40:57.588Z,13.35
2019-02-05T14:43:27.459Z,13.50
2019-02-05T14:45:56.891Z,15.28
2019-02-05T14:48:26.732Z,13.10
2019-02-05T14:50:56.235Z,13.43
2019-02-05T14:53:25.933Z,12.78
2019-02-05T14:55:55.457Z,13.43
2019-02-05T14:58:25.026Z,12.28
2019-02-05T15:00:54.905Z,13.48
2019-02-05T15:03:24.536Z,14.23
2019-02-05T15:05:54.163Z,13.50
2019-02-05T15:08:23.682Z,13.90
2019-02-05T15:10:53.303Z,14.20
2019-02-05T15:13:22.865Z,13.77
2019-02-05T15:15:52.423Z,15.70
2019-02-05T15:18:23.849Z,15.43
2019-02-05T15:20:53.480Z,15.93
2019-02-05T15:23:23.026Z,14.70
2019-02-05T15:25:52.896Z,13.80
2019-02-05T15:28:22.474Z,13.83
2019-02-05T15:30:52.125Z,13.40
2019-02-05T15:33:40.674Z,14.90
2019-02-05T15:36:31.350Z,13.80
2019-02-05T15:39:00.014Z,14.05
2019-02-05T15:41:29.464Z,13.62
2019-02-05T15:44:00.762Z,14.43
2019-02-05T15:46:31.158Z,14.63
2019-02-05T15:49:00.734Z,13.80
2019-02-05T15:51:30.306Z,14.60
2019-02-05T15:54:00.263Z,13.93
2019-02-05T15:56:29.871Z,16.75
2019-02-05T15:58:59.558Z,15.35
2019-02-05T16:01:29.795Z,15.32
2019-02-05T16:03:59.250Z,13.88
2019-02-05T16:06:29.097Z,13.18
2019-02-05T16:08:58.697Z,14.53
2019-02-05T16:11:28.314Z,13.30
2019-02-05T16:14:15.803Z,14.05
2019-02-05T16:16:45.858Z,12.82
2019-02-05T16:19:33.622Z,13.25
2019-02-05T16:22:03.229Z,13.30
2019-02-05T16:24:32.813Z,16.27
2019-02-05T16:27:02.357Z,15.15
2019-02-05T16:29:32.239Z,15.28
2019-02-05T16:32:01.786Z,13.55
2019-02-05T16:34:31.695Z,15.15
2019-02-05T16:37:01.309Z,15.00
2019-02-05T16:39:30.997Z,14.45
2019-02-05T16:42:01.054Z,14.73
2019-02-05T16:44:30.742Z,14.58
2019-02-05T16:47:00.689Z,14.60
2019-02-05T16:49:30.282Z,15.13
2019-02-05T16:51:59.978Z,14.87
2019-02-05T16:54:29.581Z,15.85
2019-02-05T16:57:31.493Z,14.53
2019-02-05T17:01:34.792Z,15.45
2019-02-05T17:02:55.163Z,14.73
2019-02-05T17:06:20.741Z,16.70
2019-02-05T17:08:41.866Z,15.60
2019-02-05T17:11:11.414Z,15.43
2019-02-05T17:13:41.080Z,15.53
2019-02-05T17:16:11.158Z,14.35
2019-02-05T17:18:40.893Z,14.00
2019-02-05T17:21:10.669Z,15.08
2019-02-05T17:23:40.321Z,14.75
2019-02-05T17:26:10.052Z,14.43
2019-02-05T17:28:39.740Z,14.35
2019-02-05T17:31:09.866Z,13.85
2019-02-05T17:33:39.985Z,14.53
2019-02-05T17:36:10.016Z,13.32
2019-02-05T17:38:39.861Z,15.05
2019-02-05T17:41:09.555Z,14.63
2019-02-05T17:43:39.323Z,15.05
2019-02-05T17:46:09.959Z,15.23
2019-02-05T17:48:40.540Z,17.10
2019-02-05T17:51:11.409Z,29.18
2019-02-05T17:53:41.030Z,25.37
2019-02-05T17:56:10.556Z,22.55
2019-02-05T17:58:41.059Z,28.17
2019-02-05T18:01:12.505Z,22.80
2019-02-05T18:03:42.173Z,23.27
2019-02-05T18:06:11.778Z,24.85
2019-02-05T18:08:41.519Z,23.98
2019-02-05T18:11:11.371Z,22.20
2019-02-05T18:13:41.408Z,25.17
2019-02-05T18:16:16.817Z,27.37
2019-02-05T18:18:46.554Z,29.23
2019-02-05T18:21:33.884Z,29.82
2019-02-05T18:24:03.660Z,26.23
2019-02-05T18:26:33.297Z,28.05
2019-02-05T18:29:02.844Z,27.20
2019-02-05T18:31:32.650Z,22.50
2019-02-05T18:34:02.369Z,20.17
2019-02-05T18:36:32.202Z,20.20
2019-02-05T18:39:01.834Z,18.30
2019-02-05T18:41:31.595Z,21.57
2019-02-05T18:44:01.210Z,21.10
2019-02-05T18:46:31.464Z,22.20
2019-02-05T18:49:06.229Z,22.80
2019-02-05T18:51:32.532Z,20.02
2019-02-05T18:54:02.142Z,21.00
2019-02-05T18:56:31.859Z,22.15
2019-02-05T18:59:01.775Z,25.00
2019-02-05T19:01:31.425Z,31.85
2019-02-05T19:04:01.856Z,29.20
2019-02-05T19:06:31.682Z,26.75
2019-02-05T19:09:01.946Z,27.82
2019-02-05T19:11:31.576Z,30.10
2019-02-05T19:14:01.189Z,31.27
2019-02-05T19:16:30.875Z,31.10
2019-02-05T19:19:00.610Z,25.85
2019-02-05T19:21:30.528Z,25.25
2019-02-05T19:24:08.909Z,33.88
2019-02-05T19:26:49.069Z,31.68
2019-02-05T19:29:19.604Z,28.47
2019-02-05T19:31:50.197Z,30.02
2019-02-05T19:34:19.877Z,29.05
2019-02-05T19:36:49.540Z,30.88
2019-02-05T19:39:19.102Z,30.70
2019-02-05T19:41:48.700Z,28.20
2019-02-05T19:44:18.402Z,29.05
2019-02-05T19:46:57.150Z,33.40
2019-02-05T19:49:46.247Z,33.90
2019-02-05T19:52:15.984Z,30.85
2019-02-05T19:54:45.834Z,31.93
2019-02-05T19:57:15.598Z,33.85
2019-02-05T19:59:45.852Z,29.27
2019-02-05T20:02:15.908Z,27.95
2019-02-05T20:04:45.478Z,23.92
2019-02-05T20:07:15.506Z,22.42
2019-02-05T20:09:45.129Z,21.90
2019-02-05T20:12:14.928Z,23.40
2019-02-05T20:14:45.013Z,21.65
2019-02-05T20:17:14.793Z,21.33
2019-02-05T20:19:44.414Z,20.75
2019-02-05T20:22:14.315Z,23.62
2019-02-05T20:24:44.032Z,23.15
2019-02-05T20:27:13.643Z,25.23
2019-02-05T20:29:43.300Z,22.70
2019-02-05T20:32:13.281Z,22.98
2019-02-05T20:34:42.875Z,24.12
2019-02-05T20:37:12.595Z,25.20
2019-02-05T20:39:42.332Z,29.50
2019-02-05T20:42:12.006Z,31.27
2019-02-05T20:44:41.763Z,33.63
2019-02-05T20:47:11.522Z,32.25
2019-02-05T20:49:41.271Z,31.15
2019-02-05T20:52:11.026Z,28.42
2019-02-05T20:54:40.606Z,31.90
2019-02-05T20:57:10.407Z,33.53
2019-02-05T20:59:40.042Z,32.53
2019-02-05T21:02:10.145Z,35.73
2019-02-05T21:04:47.913Z,32.35
2019-02-05T21:07:11.472Z,28.77
2019-02-05T21:09:42.239Z,28.70
2019-02-05T21:12:12.115Z,28.77
2019-02-05T21:14:41.839Z,38.15
2019-02-05T21:17:12.033Z,34.75
2019-02-05T21:19:41.730Z,30.25
2019-02-05T21:22:11.441Z,31.10
2019-02-05T21:24:41.116Z,30.00
2019-02-05T21:27:11.186Z,29.10
2019-02-05T21:29:41.010Z,30.92
2019-02-05T21:32:10.661Z,34.23
2019-02-05T21:34:40.636Z,37.63
2019-02-05T21:37:10.170Z,34.15
2019-02-05T21:39:39.865Z,34.23
2019-02-05T21:42:09.533Z,34.40
2019-02-05T21:44:39.559Z,32.40
2019-02-05T21:47:09.189Z,33.70
2019-02-05T21:49:38.928Z,31.17
2019-02-05T21:52:08.574Z,31.23
2019-02-05T21:54:38.448Z,32.38
2019-02-05T21:57:08.072Z,34.58
2019-02-05T21:59:37.748Z,33.48
2019-02-05T22:02:07.718Z,31.70
2019-02-05T22:04:37.694Z,35.48
2019-02-05T22:07:07.443Z,32.85
2019-02-05T22:09:37.412Z,33.95
2019-02-05T22:12:07.025Z,33.53
2019-02-05T22:14:36.829Z,35.03
2019-02-05T22:17:06.468Z,33.45
2019-02-05T22:19:36.220Z,35.78
2019-02-05T22:22:06.183Z,32.35
2019-02-05T22:24:35.786Z,32.70
2019-02-05T22:27:05.864Z,31.00
2019-02-05T22:29:35.504Z,31.70
2019-02-05T22:32:05.187Z,33.30
2019-02-05T22:34:39.460Z,32.90
2019-02-05T22:37:06.129Z,32.67
2019-02-05T22:39:36.161Z,32.00
2019-02-05T22:42:07.169Z,33.98
2019-02-05T22:44:36.770Z,35.60
2019-02-05T22:47:06.428Z,34.40
2019-02-05T22:49:36.036Z,35.13
2019-02-05T22:52:06.059Z,34.58
2019-02-05T22:54:35.807Z,37.15
2019-02-05T22:57:05.418Z,36.40
2019-02-05T22:59:35.616Z,33.78
2019-02-05T23:02:06.429Z,32.70
2019-02-05T23:05:12.021Z,32.33
2019-02-05T23:07:41.795Z,30.77
2019-02-05T23:11:03.125Z,32.33
2019-02-05T23:13:25.194Z,30.35
2019-02-05T23:15:55.097Z,30.92
2019-02-05T23:18:25.845Z,30.15
2019-02-05T23:20:55.439Z,28.30
2019-02-05T23:23:25.231Z,29.60
2019-02-05T23:25:55.038Z,28.70
2019-02-05T23:28:24.734Z,29.35
2019-02-05T23:30:55.064Z,28.75
2019-02-05T23:33:24.797Z,26.87
2019-02-05T23:35:54.379Z,26.82
2019-02-05T23:38:29.507Z,28.40
2019-02-05T23:40:55.485Z,29.20
2019-02-05T23:43:25.267Z,30.57
2019-02-05T23:46:01.511Z,27.95
2019-02-05T23:48:26.071Z,27.05
2019-02-05T23:50:55.419Z,27.40
2019-02-05T23:53:24.793Z,26.57
2019-02-05T23:55:54.249Z,27.20
2019-02-05T23:58:23.770Z,27.00
